sensor_id;sensor_type;location;lat;lon;timestamp;P1;durP1;ratioP1;P2;durP2;ratioP2
21192;SDS011;10754;51.106;7.164;2023-07-08T00:00:27;2.28;;;2.00;;
21192;SDS011;10754;51.106;7.164;2023-07-08T00:02:52;2.75;;;2.20;;
21192;SDS011;10754;51.106;7.164;2023-07-08T00:05:19;2.25;;;1.70;;
21192;SDS011;10754;51.106;7.164;2023-07-08T00:07:46;4.75;;;2.20;;
21192;SDS011;10754;51.106;7.164;2023-07-08T00:10:23;2.33;;;2.13;;
21192;SDS011;10754;51.106;7.164;2023-07-08T00:12:51;2.15;;;1.98;;
21192;SDS011;10754;51.106;7.164;2023-07-08T00:15:18;2.63;;;2.42;;
21192;SDS011;10754;51.106;7.164;2023-07-08T00:17:45;2.15;;;1.83;;
21192;SDS011;10754;51.106;7.164;2023-07-08T00:20:16;2.53;;;2.03;;
21192;SDS011;10754;51.106;7.164;2023-07-08T00:22:54;2.10;;;2.00;;
21192;SDS011;10754;51.106;7.164;2023-07-08T00:25:19;2.20;;;2.00;;
21192;SDS011;10754;51.106;7.164;2023-07-08T00:27:45;1.92;;;1.83;;
21192;SDS011;10754;51.106;7.164;2023-07-08T00:32:52;2.83;;;2.03;;
21192;SDS011;10754;51.106;7.164;2023-07-08T00:35:20;2.45;;;1.90;;
21192;SDS011;10754;51.106;7.164;2023-07-08T00:37:47;2.28;;;1.95;;
21192;SDS011;10754;51.106;7.164;2023-07-08T00:40:16;2.95;;;1.90;;
21192;SDS011;10754;51.106;7.164;2023-07-08T00:42:44;2.83;;;2.40;;
21192;SDS011;10754;51.106;7.164;2023-07-08T00:45:29;2.25;;;2.03;;
21192;SDS011;10754;51.106;7.164;2023-07-08T00:48:00;2.20;;;2.00;;
21192;SDS011;10754;51.106;7.164;2023-07-08T00:50:30;1.90;;;1.80;;
21192;SDS011;10754;51.106;7.164;2023-07-08T00:55:59;3.90;;;2.22;;
21192;SDS011;10754;51.106;7.164;2023-07-08T00:58:35;1.88;;;1.77;;
21192;SDS011;10754;51.106;7.164;2023-07-08T01:01:06;2.95;;;2.08;;
21192;SDS011;10754;51.106;7.164;2023-07-08T01:03:33;2.10;;;1.90;;
21192;SDS011;10754;51.106;7.164;2023-07-08T01:06:05;2.47;;;2.28;;
21192;SDS011;10754;51.106;7.164;2023-07-08T01:08:31;2.22;;;2.03;;
21192;SDS011;10754;51.106;7.164;2023-07-08T01:10:59;2.22;;;2.03;;
21192;SDS011;10754;51.106;7.164;2023-07-08T01:13:27;2.75;;;1.90;;
21192;SDS011;10754;51.106;7.164;2023-07-08T01:15:58;2.47;;;2.15;;
21192;SDS011;10754;51.106;7.164;2023-07-08T01:18:23;3.05;;;1.80;;
21192;SDS011;10754;51.106;7.164;2023-07-08T01:20:50;2.38;;;2.15;;
21192;SDS011;10754;51.106;7.164;2023-07-08T01:23:17;2.20;;;2.00;;
21192;SDS011;10754;51.106;7.164;2023-07-08T01:25:43;2.83;;;2.00;;
21192;SDS011;10754;51.106;7.164;2023-07-08T01:28:09;4.55;;;2.55;;
21192;SDS011;10754;51.106;7.164;2023-07-08T01:30:35;2.88;;;2.13;;
21192;SDS011;10754;51.106;7.164;2023-07-08T01:33:02;3.20;;;2.45;;
21192;SDS011;10754;51.106;7.164;2023-07-08T01:35:31;2.88;;;2.47;;
21192;SDS011;10754;51.106;7.164;2023-07-08T01:37:58;2.63;;;2.08;;
21192;SDS011;10754;51.106;7.164;2023-07-08T01:40:28;3.53;;;2.20;;
21192;SDS011;10754;51.106;7.164;2023-07-08T01:42:56;3.50;;;2.13;;
21192;SDS011;10754;51.106;7.164;2023-07-08T01:45:23;2.80;;;2.25;;
21192;SDS011;10754;51.106;7.164;2023-07-08T01:47:53;2.47;;;1.70;;
21192;SDS011;10754;51.106;7.164;2023-07-08T01:50:23;2.38;;;1.92;;
21192;SDS011;10754;51.106;7.164;2023-07-08T01:52:50;3.72;;;2.00;;
21192;SDS011;10754;51.106;7.164;2023-07-08T01:55:22;2.40;;;2.20;;
21192;SDS011;10754;51.106;7.164;2023-07-08T01:57:51;3.38;;;2.13;;
21192;SDS011;10754;51.106;7.164;2023-07-08T02:00:17;2.30;;;2.10;;
21192;SDS011;10754;51.106;7.164;2023-07-08T02:02:43;2.20;;;1.98;;
21192;SDS011;10754;51.106;7.164;2023-07-08T02:05:09;3.63;;;2.38;;
21192;SDS011;10754;51.106;7.164;2023-07-08T02:07:34;3.28;;;2.22;;
21192;SDS011;10754;51.106;7.164;2023-07-08T02:10:00;3.05;;;2.00;;
21192;SDS011;10754;51.106;7.164;2023-07-08T02:12:25;2.25;;;2.00;;
21192;SDS011;10754;51.106;7.164;2023-07-08T02:14:51;2.38;;;2.00;;
21192;SDS011;10754;51.106;7.164;2023-07-08T02:17:16;1.75;;;1.65;;
21192;SDS011;10754;51.106;7.164;2023-07-08T02:19:42;2.40;;;2.17;;
21192;SDS011;10754;51.106;7.164;2023-07-08T02:22:08;2.55;;;2.00;;
21192;SDS011;10754;51.106;7.164;2023-07-08T02:24:34;2.08;;;1.67;;
21192;SDS011;10754;51.106;7.164;2023-07-08T02:27:00;2.35;;;1.90;;
21192;SDS011;10754;51.106;7.164;2023-07-08T02:29:26;3.97;;;2.22;;
21192;SDS011;10754;51.106;7.164;2023-07-08T02:31:51;2.20;;;2.00;;
21192;SDS011;10754;51.106;7.164;2023-07-08T02:34:17;2.13;;;1.92;;
21192;SDS011;10754;51.106;7.164;2023-07-08T02:36:43;2.20;;;2.00;;
21192;SDS011;10754;51.106;7.164;2023-07-08T02:39:09;2.08;;;1.88;;
21192;SDS011;10754;51.106;7.164;2023-07-08T02:41:34;2.35;;;2.10;;
21192;SDS011;10754;51.106;7.164;2023-07-08T02:44:00;3.47;;;2.20;;
21192;SDS011;10754;51.106;7.164;2023-07-08T02:46:26;2.47;;;1.85;;
21192;SDS011;10754;51.106;7.164;2023-07-08T02:48:51;3.22;;;1.88;;
21192;SDS011;10754;51.106;7.164;2023-07-08T02:51:17;3.35;;;1.92;;
21192;SDS011;10754;51.106;7.164;2023-07-08T02:53:42;2.03;;;1.80;;
21192;SDS011;10754;51.106;7.164;2023-07-08T02:56:07;2.45;;;2.10;;
21192;SDS011;10754;51.106;7.164;2023-07-08T02:58:33;2.47;;;2.28;;
21192;SDS011;10754;51.106;7.164;2023-07-08T03:00:59;2.05;;;1.85;;
21192;SDS011;10754;51.106;7.164;2023-07-08T03:03:25;3.13;;;1.95;;
21192;SDS011;10754;51.106;7.164;2023-07-08T03:05:57;2.25;;;2.03;;
21192;SDS011;10754;51.106;7.164;2023-07-08T03:08:28;3.50;;;2.10;;
21192;SDS011;10754;51.106;7.164;2023-07-08T03:10:57;2.00;;;1.90;;
21192;SDS011;10754;51.106;7.164;2023-07-08T03:13:25;2.40;;;2.20;;
21192;SDS011;10754;51.106;7.164;2023-07-08T03:15:51;2.22;;;2.03;;
21192;SDS011;10754;51.106;7.164;2023-07-08T03:18:17;3.72;;;2.20;;
21192;SDS011;10754;51.106;7.164;2023-07-08T03:20:42;2.78;;;1.95;;
21192;SDS011;10754;51.106;7.164;2023-07-08T03:23:11;2.70;;;2.00;;
21192;SDS011;10754;51.106;7.164;2023-07-08T03:25:37;2.88;;;1.92;;
21192;SDS011;10754;51.106;7.164;2023-07-08T03:28:03;2.92;;;1.90;;
21192;SDS011;10754;51.106;7.164;2023-07-08T03:30:32;2.58;;;2.00;;
21192;SDS011;10754;51.106;7.164;2023-07-08T03:32:59;2.22;;;2.03;;
21192;SDS011;10754;51.106;7.164;2023-07-08T03:35:24;2.53;;;2.33;;
21192;SDS011;10754;51.106;7.164;2023-07-08T03:37:51;2.03;;;1.83;;
21192;SDS011;10754;51.106;7.164;2023-07-08T03:40:16;3.97;;;2.33;;
21192;SDS011;10754;51.106;7.164;2023-07-08T03:42:42;2.55;;;2.10;;
21192;SDS011;10754;51.106;7.164;2023-07-08T03:45:08;3.20;;;2.25;;
21192;SDS011;10754;51.106;7.164;2023-07-08T03:47:34;3.17;;;2.35;;
21192;SDS011;10754;51.106;7.164;2023-07-08T03:49:59;2.00;;;1.80;;
21192;SDS011;10754;51.106;7.164;2023-07-08T03:52:25;2.42;;;1.92;;
21192;SDS011;10754;51.106;7.164;2023-07-08T03:54:50;2.33;;;1.85;;
21192;SDS011;10754;51.106;7.164;2023-07-08T03:57:16;3.90;;;2.30;;
21192;SDS011;10754;51.106;7.164;2023-07-08T03:59:41;3.08;;;1.92;;
21192;SDS011;10754;51.106;7.164;2023-07-08T04:02:08;2.10;;;1.90;;
21192;SDS011;10754;51.106;7.164;2023-07-08T04:04:36;2.92;;;2.35;;
21192;SDS011;10754;51.106;7.164;2023-07-08T04:07:02;3.80;;;2.08;;
21192;SDS011;10754;51.106;7.164;2023-07-08T04:09:28;2.58;;;2.38;;
21192;SDS011;10754;51.106;7.164;2023-07-08T04:11:54;2.05;;;1.70;;
21192;SDS011;10754;51.106;7.164;2023-07-08T04:14:19;2.63;;;2.00;;
21192;SDS011;10754;51.106;7.164;2023-07-08T04:16:46;2.88;;;2.10;;
21192;SDS011;10754;51.106;7.164;2023-07-08T04:19:16;2.10;;;2.00;;
21192;SDS011;10754;51.106;7.164;2023-07-08T04:21:43;3.63;;;2.20;;
21192;SDS011;10754;51.106;7.164;2023-07-08T04:24:10;2.50;;;2.30;;
21192;SDS011;10754;51.106;7.164;2023-07-08T04:26:37;2.78;;;1.88;;
21192;SDS011;10754;51.106;7.164;2023-07-08T04:29:04;2.40;;;2.20;;
21192;SDS011;10754;51.106;7.164;2023-07-08T04:31:37;2.90;;;2.50;;
21192;SDS011;10754;51.106;7.164;2023-07-08T04:34:02;2.20;;;1.90;;
21192;SDS011;10754;51.106;7.164;2023-07-08T04:36:28;2.47;;;2.17;;
21192;SDS011;10754;51.106;7.164;2023-07-08T04:38:54;2.45;;;2.25;;
21192;SDS011;10754;51.106;7.164;2023-07-08T04:41:22;2.50;;;2.30;;
21192;SDS011;10754;51.106;7.164;2023-07-08T04:43:50;2.75;;;2.25;;
21192;SDS011;10754;51.106;7.164;2023-07-08T04:46:19;3.92;;;2.35;;
21192;SDS011;10754;51.106;7.164;2023-07-08T04:48:52;2.40;;;2.17;;
21192;SDS011;10754;51.106;7.164;2023-07-08T04:51:17;2.40;;;2.20;;
21192;SDS011;10754;51.106;7.164;2023-07-08T04:53:44;3.28;;;2.40;;
21192;SDS011;10754;51.106;7.164;2023-07-08T04:56:09;2.72;;;2.50;;
21192;SDS011;10754;51.106;7.164;2023-07-08T04:58:35;2.13;;;1.92;;
21192;SDS011;10754;51.106;7.164;2023-07-08T05:01:00;3.33;;;2.08;;
21192;SDS011;10754;51.106;7.164;2023-07-08T05:03:26;2.40;;;2.20;;
21192;SDS011;10754;51.106;7.164;2023-07-08T05:05:51;2.35;;;2.15;;
21192;SDS011;10754;51.106;7.164;2023-07-08T05:08:17;3.15;;;2.20;;
21192;SDS011;10754;51.106;7.164;2023-07-08T05:10:42;3.65;;;2.38;;
21192;SDS011;10754;51.106;7.164;2023-07-08T05:13:08;2.80;;;2.05;;
21192;SDS011;10754;51.106;7.164;2023-07-08T05:15:34;2.17;;;1.98;;
21192;SDS011;10754;51.106;7.164;2023-07-08T05:18:00;2.40;;;2.20;;
21192;SDS011;10754;51.106;7.164;2023-07-08T05:20:26;4.00;;;2.28;;
21192;SDS011;10754;51.106;7.164;2023-07-08T05:22:51;3.88;;;2.03;;
21192;SDS011;10754;51.106;7.164;2023-07-08T05:25:17;2.40;;;2.08;;
21192;SDS011;10754;51.106;7.164;2023-07-08T05:27:44;3.35;;;2.40;;
21192;SDS011;10754;51.106;7.164;2023-07-08T05:30:11;3.50;;;2.40;;
21192;SDS011;10754;51.106;7.164;2023-07-08T05:32:39;2.20;;;2.00;;
21192;SDS011;10754;51.106;7.164;2023-07-08T05:35:05;4.05;;;2.80;;
21192;SDS011;10754;51.106;7.164;2023-07-08T05:37:31;4.10;;;2.85;;
21192;SDS011;10754;51.106;7.164;2023-07-08T05:39:56;3.63;;;2.58;;
21192;SDS011;10754;51.106;7.164;2023-07-08T05:42:25;2.53;;;2.28;;
21192;SDS011;10754;51.106;7.164;2023-07-08T05:44:50;3.38;;;2.30;;
21192;SDS011;10754;51.106;7.164;2023-07-08T05:47:17;3.72;;;2.40;;
21192;SDS011;10754;51.106;7.164;2023-07-08T05:49:42;2.45;;;2.25;;
21192;SDS011;10754;51.106;7.164;2023-07-08T05:52:08;2.65;;;2.45;;
21192;SDS011;10754;51.106;7.164;2023-07-08T05:54:39;2.45;;;2.25;;
21192;SDS011;10754;51.106;7.164;2023-07-08T05:57:06;2.85;;;2.20;;
21192;SDS011;10754;51.106;7.164;2023-07-08T05:59:33;3.22;;;2.20;;
21192;SDS011;10754;51.106;7.164;2023-07-08T06:02:00;2.72;;;2.28;;
21192;SDS011;10754;51.106;7.164;2023-07-08T06:04:25;4.22;;;2.50;;
21192;SDS011;10754;51.106;7.164;2023-07-08T06:06:52;3.45;;;2.35;;
21192;SDS011;10754;51.106;7.164;2023-07-08T06:09:17;4.13;;;2.83;;
21192;SDS011;10754;51.106;7.164;2023-07-08T06:11:43;4.50;;;2.85;;
21192;SDS011;10754;51.106;7.164;2023-07-08T06:14:08;2.58;;;2.38;;
21192;SDS011;10754;51.106;7.164;2023-07-08T06:16:34;3.13;;;2.83;;
21192;SDS011;10754;51.106;7.164;2023-07-08T06:19:00;3.30;;;2.58;;
21192;SDS011;10754;51.106;7.164;2023-07-08T06:21:25;2.63;;;2.40;;
21192;SDS011;10754;51.106;7.164;2023-07-08T06:23:51;2.63;;;2.42;;
21192;SDS011;10754;51.106;7.164;2023-07-08T06:26:16;2.80;;;2.47;;
21192;SDS011;10754;51.106;7.164;2023-07-08T06:28:42;3.13;;;2.65;;
21192;SDS011;10754;51.106;7.164;2023-07-08T06:31:07;3.90;;;2.90;;
21192;SDS011;10754;51.106;7.164;2023-07-08T06:33:33;2.88;;;2.67;;
21192;SDS011;10754;51.106;7.164;2023-07-08T06:35:58;2.55;;;2.35;;
21192;SDS011;10754;51.106;7.164;2023-07-08T06:38:24;3.05;;;2.83;;
21192;SDS011;10754;51.106;7.164;2023-07-08T06:40:49;2.75;;;2.50;;
21192;SDS011;10754;51.106;7.164;2023-07-08T06:43:15;3.00;;;2.65;;
21192;SDS011;10754;51.106;7.164;2023-07-08T06:45:40;4.18;;;3.15;;
21192;SDS011;10754;51.106;7.164;2023-07-08T06:48:06;2.30;;;2.10;;
21192;SDS011;10754;51.106;7.164;2023-07-08T06:50:32;3.70;;;2.75;;
21192;SDS011;10754;51.106;7.164;2023-07-08T06:52:57;3.00;;;2.80;;
21192;SDS011;10754;51.106;7.164;2023-07-08T06:55:23;4.18;;;2.92;;
21192;SDS011;10754;51.106;7.164;2023-07-08T06:57:48;3.55;;;3.05;;
21192;SDS011;10754;51.106;7.164;2023-07-08T07:00:14;3.63;;;3.20;;
21192;SDS011;10754;51.106;7.164;2023-07-08T07:02:40;4.07;;;2.63;;
21192;SDS011;10754;51.106;7.164;2023-07-08T07:05:05;3.00;;;2.80;;
21192;SDS011;10754;51.106;7.164;2023-07-08T07:07:31;3.50;;;3.15;;
21192;SDS011;10754;51.106;7.164;2023-07-08T07:09:57;3.42;;;2.78;;
21192;SDS011;10754;51.106;7.164;2023-07-08T07:12:23;2.88;;;2.60;;
21192;SDS011;10754;51.106;7.164;2023-07-08T07:14:50;3.95;;;3.20;;
21192;SDS011;10754;51.106;7.164;2023-07-08T07:17:17;3.60;;;3.30;;
21192;SDS011;10754;51.106;7.164;2023-07-08T07:19:44;3.40;;;3.10;;
21192;SDS011;10754;51.106;7.164;2023-07-08T07:22:10;4.25;;;3.58;;
21192;SDS011;10754;51.106;7.164;2023-07-08T07:24:35;3.42;;;3.13;;
21192;SDS011;10754;51.106;7.164;2023-07-08T07:27:01;3.20;;;3.00;;
21192;SDS011;10754;51.106;7.164;2023-07-08T07:29:26;4.70;;;3.20;;
21192;SDS011;10754;51.106;7.164;2023-07-08T07:31:52;3.53;;;3.25;;
21192;SDS011;10754;51.106;7.164;2023-07-08T07:34:17;4.35;;;3.35;;
21192;SDS011;10754;51.106;7.164;2023-07-08T07:36:43;3.67;;;3.30;;
21192;SDS011;10754;51.106;7.164;2023-07-08T07:39:09;2.90;;;2.70;;
21192;SDS011;10754;51.106;7.164;2023-07-08T07:41:34;3.75;;;3.05;;
21192;SDS011;10754;51.106;7.164;2023-07-08T07:44:00;4.10;;;3.70;;
21192;SDS011;10754;51.106;7.164;2023-07-08T07:46:25;4.13;;;3.03;;
21192;SDS011;10754;51.106;7.164;2023-07-08T07:48:51;4.28;;;3.05;;
21192;SDS011;10754;51.106;7.164;2023-07-08T07:51:16;5.50;;;3.65;;
21192;SDS011;10754;51.106;7.164;2023-07-08T07:53:42;5.75;;;3.67;;
21192;SDS011;10754;51.106;7.164;2023-07-08T07:56:07;4.15;;;3.17;;
21192;SDS011;10754;51.106;7.164;2023-07-08T07:58:33;4.47;;;3.17;;
21192;SDS011;10754;51.106;7.164;2023-07-08T08:00:59;3.50;;;3.20;;
21192;SDS011;10754;51.106;7.164;2023-07-08T08:03:24;3.63;;;3.15;;
21192;SDS011;10754;51.106;7.164;2023-07-08T08:05:50;3.63;;;3.33;;
21192;SDS011;10754;51.106;7.164;2023-07-08T08:08:16;3.90;;;3.58;;
21192;SDS011;10754;51.106;7.164;2023-07-08T08:10:42;5.47;;;3.80;;
21192;SDS011;10754;51.106;7.164;2023-07-08T08:13:08;3.60;;;3.30;;
21192;SDS011;10754;51.106;7.164;2023-07-08T08:15:33;4.05;;;3.38;;
21192;SDS011;10754;51.106;7.164;2023-07-08T08:17:59;3.58;;;3.00;;
21192;SDS011;10754;51.106;7.164;2023-07-08T08:20:25;4.18;;;3.25;;
21192;SDS011;10754;51.106;7.164;2023-07-08T08:22:50;3.80;;;3.50;;
21192;SDS011;10754;51.106;7.164;2023-07-08T08:25:17;3.97;;;3.58;;
21192;SDS011;10754;51.106;7.164;2023-07-08T08:27:44;4.18;;;2.97;;
21192;SDS011;10754;51.106;7.164;2023-07-08T08:30:10;4.38;;;3.00;;
21192;SDS011;10754;51.106;7.164;2023-07-08T08:32:36;3.95;;;3.20;;
21192;SDS011;10754;51.106;7.164;2023-07-08T08:35:03;3.22;;;2.92;;
21192;SDS011;10754;51.106;7.164;2023-07-08T08:37:29;3.33;;;3.03;;
21192;SDS011;10754;51.106;7.164;2023-07-08T08:39:54;3.45;;;3.05;;
21192;SDS011;10754;51.106;7.164;2023-07-08T08:44:58;3.80;;;2.83;;
21192;SDS011;10754;51.106;7.164;2023-07-08T08:47:29;3.67;;;3.03;;
21192;SDS011;10754;51.106;7.164;2023-07-08T08:53:09;3.05;;;2.78;;
21192;SDS011;10754;51.106;7.164;2023-07-08T08:55:37;3.70;;;3.30;;
21192;SDS011;10754;51.106;7.164;2023-07-08T09:00:54;3.58;;;3.08;;
21192;SDS011;10754;51.106;7.164;2023-07-08T09:03:33;3.25;;;2.95;;
21192;SDS011;10754;51.106;7.164;2023-07-08T09:06:10;3.72;;;2.88;;
21192;SDS011;10754;51.106;7.164;2023-07-08T09:08:37;4.30;;;3.25;;
21192;SDS011;10754;51.106;7.164;2023-07-08T09:11:13;3.28;;;2.90;;
21192;SDS011;10754;51.106;7.164;2023-07-08T09:13:44;4.30;;;3.15;;
21192;SDS011;10754;51.106;7.164;2023-07-08T09:18:41;4.57;;;3.13;;
21192;SDS011;10754;51.106;7.164;2023-07-08T09:21:22;2.95;;;2.67;;
21192;SDS011;10754;51.106;7.164;2023-07-08T09:23:52;4.63;;;2.85;;
21192;SDS011;10754;51.106;7.164;2023-07-08T09:26:25;3.20;;;2.60;;
21192;SDS011;10754;51.106;7.164;2023-07-08T09:28:55;2.90;;;2.60;;
21192;SDS011;10754;51.106;7.164;2023-07-08T09:31:27;5.05;;;2.33;;
21192;SDS011;10754;51.106;7.164;2023-07-08T09:34:04;2.83;;;2.63;;
21192;SDS011;10754;51.106;7.164;2023-07-08T09:36:30;2.80;;;2.55;;
21192;SDS011;10754;51.106;7.164;2023-07-08T09:38:55;5.10;;;2.80;;
21192;SDS011;10754;51.106;7.164;2023-07-08T09:41:31;4.03;;;2.67;;
21192;SDS011;10754;51.106;7.164;2023-07-08T09:44:13;2.95;;;2.67;;
21192;SDS011;10754;51.106;7.164;2023-07-08T09:46:41;5.38;;;2.40;;
21192;SDS011;10754;51.106;7.164;2023-07-08T09:51:43;3.13;;;2.80;;
21192;SDS011;10754;51.106;7.164;2023-07-08T09:54:09;3.45;;;2.40;;
21192;SDS011;10754;51.106;7.164;2023-07-08T09:56:34;3.58;;;2.33;;
21192;SDS011;10754;51.106;7.164;2023-07-08T09:59:04;2.95;;;2.38;;
21192;SDS011;10754;51.106;7.164;2023-07-08T10:01:29;3.55;;;2.70;;
21192;SDS011;10754;51.106;7.164;2023-07-08T10:03:58;2.90;;;2.60;;
21192;SDS011;10754;51.106;7.164;2023-07-08T10:06:26;3.78;;;2.40;;
21192;SDS011;10754;51.106;7.164;2023-07-08T10:08:55;3.10;;;2.72;;
21192;SDS011;10754;51.106;7.164;2023-07-08T10:14:05;2.58;;;2.13;;
21192;SDS011;10754;51.106;7.164;2023-07-08T10:16:37;2.85;;;2.55;;
21192;SDS011;10754;51.106;7.164;2023-07-08T10:19:13;3.30;;;2.40;;
21192;SDS011;10754;51.106;7.164;2023-07-08T10:21:51;2.75;;;2.50;;
21192;SDS011;10754;51.106;7.164;2023-07-08T10:27:31;6.70;;;2.90;;
21192;SDS011;10754;51.106;7.164;2023-07-08T10:35:42;2.95;;;2.30;;
21192;SDS011;10754;51.106;7.164;2023-07-08T10:38:37;3.58;;;2.72;;
21192;SDS011;10754;51.106;7.164;2023-07-08T10:41:32;2.42;;;2.17;;
21192;SDS011;10754;51.106;7.164;2023-07-08T10:44:03;2.67;;;2.30;;
21192;SDS011;10754;51.106;7.164;2023-07-08T10:49:29;2.65;;;2.42;;
21192;SDS011;10754;51.106;7.164;2023-07-08T10:55:14;2.47;;;2.28;;
21192;SDS011;10754;51.106;7.164;2023-07-08T11:06:14;3.30;;;2.30;;
21192;SDS011;10754;51.106;7.164;2023-07-08T11:08:56;5.03;;;2.40;;
21192;SDS011;10754;51.106;7.164;2023-07-08T11:11:35;3.10;;;2.22;;
21192;SDS011;10754;51.106;7.164;2023-07-08T11:16:44;2.97;;;2.30;;
21192;SDS011;10754;51.106;7.164;2023-07-08T11:19:21;3.22;;;2.63;;
21192;SDS011;10754;51.106;7.164;2023-07-08T11:22:03;2.20;;;2.00;;
21192;SDS011;10754;51.106;7.164;2023-07-08T11:24:35;2.65;;;2.45;;
21192;SDS011;10754;51.106;7.164;2023-07-08T11:27:09;2.83;;;2.30;;
21192;SDS011;10754;51.106;7.164;2023-07-08T11:29:51;3.15;;;2.45;;
21192;SDS011;10754;51.106;7.164;2023-07-08T11:32:21;3.95;;;2.50;;
21192;SDS011;10754;51.106;7.164;2023-07-08T11:34:51;3.50;;;2.58;;
21192;SDS011;10754;51.106;7.164;2023-07-08T11:37:18;2.30;;;2.10;;
21192;SDS011;10754;51.106;7.164;2023-07-08T11:39:46;3.35;;;2.50;;
21192;SDS011;10754;51.106;7.164;2023-07-08T11:42:37;3.92;;;2.22;;
21192;SDS011;10754;51.106;7.164;2023-07-08T11:45:08;2.78;;;2.28;;
21192;SDS011;10754;51.106;7.164;2023-07-08T11:47:44;3.25;;;2.13;;
21192;SDS011;10754;51.106;7.164;2023-07-08T11:55:26;4.82;;;2.40;;
21192;SDS011;10754;51.106;7.164;2023-07-08T11:58:00;2.35;;;2.15;;
21192;SDS011;10754;51.106;7.164;2023-07-08T12:00:26;1.98;;;1.88;;
21192;SDS011;10754;51.106;7.164;2023-07-08T12:02:57;4.07;;;2.45;;
21192;SDS011;10754;51.106;7.164;2023-07-08T12:05:29;4.20;;;2.53;;
21192;SDS011;10754;51.106;7.164;2023-07-08T12:07:57;2.88;;;2.15;;
21192;SDS011;10754;51.106;7.164;2023-07-08T12:10:34;2.63;;;2.40;;
21192;SDS011;10754;51.106;7.164;2023-07-08T12:13:05;2.42;;;2.22;;
21192;SDS011;10754;51.106;7.164;2023-07-08T12:15:38;3.47;;;2.22;;
21192;SDS011;10754;51.106;7.164;2023-07-08T12:18:09;5.10;;;2.75;;
21192;SDS011;10754;51.106;7.164;2023-07-08T12:20:38;2.42;;;2.03;;
21192;SDS011;10754;51.106;7.164;2023-07-08T12:23:15;3.45;;;2.22;;
21192;SDS011;10754;51.106;7.164;2023-07-08T12:25:44;2.60;;;2.00;;
21192;SDS011;10754;51.106;7.164;2023-07-08T12:28:10;3.85;;;2.67;;
21192;SDS011;10754;51.106;7.164;2023-07-08T12:30:37;2.70;;;2.30;;
21192;SDS011;10754;51.106;7.164;2023-07-08T12:33:05;2.40;;;2.03;;
21192;SDS011;10754;51.106;7.164;2023-07-08T12:35:39;4.35;;;2.13;;
21192;SDS011;10754;51.106;7.164;2023-07-08T12:40:54;3.38;;;2.10;;
21192;SDS011;10754;51.106;7.164;2023-07-08T12:43:21;3.13;;;2.72;;
21192;SDS011;10754;51.106;7.164;2023-07-08T12:45:47;2.50;;;2.30;;
21192;SDS011;10754;51.106;7.164;2023-07-08T12:48:13;3.78;;;2.67;;
21192;SDS011;10754;51.106;7.164;2023-07-08T12:50:38;2.35;;;2.15;;
21192;SDS011;10754;51.106;7.164;2023-07-08T12:53:04;2.10;;;1.90;;
21192;SDS011;10754;51.106;7.164;2023-07-08T12:55:34;2.35;;;2.10;;
21192;SDS011;10754;51.106;7.164;2023-07-08T12:58:04;2.28;;;2.05;;
21192;SDS011;10754;51.106;7.164;2023-07-08T13:00:33;3.08;;;2.30;;
21192;SDS011;10754;51.106;7.164;2023-07-08T13:03:05;3.08;;;2.72;;
21192;SDS011;10754;51.106;7.164;2023-07-08T13:05:39;3.35;;;2.47;;
21192;SDS011;10754;51.106;7.164;2023-07-08T13:08:07;2.50;;;2.30;;
21192;SDS011;10754;51.106;7.164;2023-07-08T13:10:43;3.40;;;2.53;;
21192;SDS011;10754;51.106;7.164;2023-07-08T13:13:20;5.13;;;2.33;;
21192;SDS011;10754;51.106;7.164;2023-07-08T13:15:48;3.42;;;2.38;;
21192;SDS011;10754;51.106;7.164;2023-07-08T13:18:15;3.05;;;2.20;;
21192;SDS011;10754;51.106;7.164;2023-07-08T13:20:43;2.97;;;2.47;;
21192;SDS011;10754;51.106;7.164;2023-07-08T13:23:19;2.30;;;2.10;;
21192;SDS011;10754;51.106;7.164;2023-07-08T13:25:50;2.90;;;2.20;;
21192;SDS011;10754;51.106;7.164;2023-07-08T13:28:18;4.00;;;2.45;;
21192;SDS011;10754;51.106;7.164;2023-07-08T13:31:02;3.00;;;2.63;;
21192;SDS011;10754;51.106;7.164;2023-07-08T13:33:38;3.72;;;2.22;;
21192;SDS011;10754;51.106;7.164;2023-07-08T13:36:09;4.25;;;2.40;;
21192;SDS011;10754;51.106;7.164;2023-07-08T13:38:35;3.65;;;2.53;;
21192;SDS011;10754;51.106;7.164;2023-07-08T13:41:04;3.92;;;2.70;;
21192;SDS011;10754;51.106;7.164;2023-07-08T13:43:31;3.22;;;2.92;;
21192;SDS011;10754;51.106;7.164;2023-07-08T13:46:02;2.83;;;2.20;;
21192;SDS011;10754;51.106;7.164;2023-07-08T13:48:36;2.72;;;2.22;;
21192;SDS011;10754;51.106;7.164;2023-07-08T13:51:06;2.55;;;2.28;;
21192;SDS011;10754;51.106;7.164;2023-07-08T13:53:56;3.10;;;2.70;;
21192;SDS011;10754;51.106;7.164;2023-07-08T13:56:26;3.33;;;2.42;;
21192;SDS011;10754;51.106;7.164;2023-07-08T13:59:01;3.25;;;2.50;;
21192;SDS011;10754;51.106;7.164;2023-07-08T14:01:34;3.55;;;2.65;;
21192;SDS011;10754;51.106;7.164;2023-07-08T14:04:06;4.18;;;2.92;;
21192;SDS011;10754;51.106;7.164;2023-07-08T14:06:34;4.80;;;3.08;;
21192;SDS011;10754;51.106;7.164;2023-07-08T14:09:06;3.83;;;2.53;;
21192;SDS011;10754;51.106;7.164;2023-07-08T14:11:37;3.92;;;3.10;;
21192;SDS011;10754;51.106;7.164;2023-07-08T14:14:03;3.10;;;2.50;;
21192;SDS011;10754;51.106;7.164;2023-07-08T14:16:30;3.97;;;2.60;;
21192;SDS011;10754;51.106;7.164;2023-07-08T14:18:59;4.20;;;2.40;;
21192;SDS011;10754;51.106;7.164;2023-07-08T14:21:31;3.25;;;2.42;;
21192;SDS011;10754;51.106;7.164;2023-07-08T14:23:58;5.38;;;2.97;;
21192;SDS011;10754;51.106;7.164;2023-07-08T14:26:23;3.55;;;2.50;;
21192;SDS011;10754;51.106;7.164;2023-07-08T14:28:49;4.22;;;3.05;;
21192;SDS011;10754;51.106;7.164;2023-07-08T14:31:17;3.83;;;2.78;;
21192;SDS011;10754;51.106;7.164;2023-07-08T14:33:45;3.33;;;2.70;;
21192;SDS011;10754;51.106;7.164;2023-07-08T14:36:11;3.03;;;2.38;;
21192;SDS011;10754;51.106;7.164;2023-07-08T14:38:37;3.33;;;2.90;;
21192;SDS011;10754;51.106;7.164;2023-07-08T14:41:03;3.40;;;2.47;;
21192;SDS011;10754;51.106;7.164;2023-07-08T14:43:30;3.20;;;2.60;;
21192;SDS011;10754;51.106;7.164;2023-07-08T14:45:58;5.30;;;2.80;;
21192;SDS011;10754;51.106;7.164;2023-07-08T14:48:27;3.15;;;2.75;;
21192;SDS011;10754;51.106;7.164;2023-07-08T14:50:54;3.78;;;2.92;;
21192;SDS011;10754;51.106;7.164;2023-07-08T14:53:19;2.85;;;2.60;;
21192;SDS011;10754;51.106;7.164;2023-07-08T14:55:46;4.65;;;2.30;;
21192;SDS011;10754;51.106;7.164;2023-07-08T15:00:56;2.85;;;2.55;;
21192;SDS011;10754;51.106;7.164;2023-07-08T15:03:23;3.15;;;2.63;;
21192;SDS011;10754;51.106;7.164;2023-07-08T15:05:49;2.90;;;2.60;;
21192;SDS011;10754;51.106;7.164;2023-07-08T15:08:15;4.00;;;2.80;;
21192;SDS011;10754;51.106;7.164;2023-07-08T15:10:42;3.70;;;2.80;;
21192;SDS011;10754;51.106;7.164;2023-07-08T15:13:12;2.88;;;2.58;;
21192;SDS011;10754;51.106;7.164;2023-07-08T15:15:37;2.70;;;2.40;;
21192;SDS011;10754;51.106;7.164;2023-07-08T15:18:14;2.80;;;2.60;;
21192;SDS011;10754;51.106;7.164;2023-07-08T15:20:41;2.95;;;2.63;;
21192;SDS011;10754;51.106;7.164;2023-07-08T15:23:07;4.55;;;2.72;;
21192;SDS011;10754;51.106;7.164;2023-07-08T15:25:34;4.10;;;2.75;;
21192;SDS011;10754;51.106;7.164;2023-07-08T15:28:02;3.15;;;2.78;;
21192;SDS011;10754;51.106;7.164;2023-07-08T15:30:29;4.55;;;2.90;;
21192;SDS011;10754;51.106;7.164;2023-07-08T15:32:55;3.92;;;2.88;;
21192;SDS011;10754;51.106;7.164;2023-07-08T15:35:22;3.72;;;2.80;;
21192;SDS011;10754;51.106;7.164;2023-07-08T15:37:50;4.00;;;2.90;;
21192;SDS011;10754;51.106;7.164;2023-07-08T15:40:16;3.17;;;2.20;;
21192;SDS011;10754;51.106;7.164;2023-07-08T15:42:44;2.83;;;2.63;;
21192;SDS011;10754;51.106;7.164;2023-07-08T15:45:18;3.40;;;2.95;;
21192;SDS011;10754;51.106;7.164;2023-07-08T15:47:49;3.30;;;3.00;;
21192;SDS011;10754;51.106;7.164;2023-07-08T15:50:16;4.20;;;2.75;;
21192;SDS011;10754;51.106;7.164;2023-07-08T15:52:44;4.35;;;2.65;;